sensor_id;sensor_type;location;lat;lon;timestamp;P1;durP1;ratioP1;P2;durP2;ratioP2
3149;SDS011;32503;47.748;8.960;2024-01-30T00:02:16;7.87;;;6.67;;
3149;SDS011;32503;47.748;8.960;2024-01-30T00:04:43;8.70;;;6.57;;
3149;SDS011;32503;47.748;8.960;2024-01-30T00:07:10;10.60;;;7.00;;
3149;SDS011;32503;47.748;8.960;2024-01-30T00:09:37;10.63;;;7.67;;
3149;SDS011;32503;47.748;8.960;2024-01-30T00:12:05;9.13;;;6.50;;
3149;SDS011;32503;47.748;8.960;2024-01-30T00:14:33;6.23;;;5.67;;
3149;SDS011;32503;47.748;8.960;2024-01-30T00:17:01;8.23;;;6.93;;
3149;SDS011;32503;47.748;8.960;2024-01-30T00:19:28;8.97;;;6.80;;
3149;SDS011;32503;47.748;8.960;2024-01-30T00:21:58;10.40;;;6.90;;
3149;SDS011;32503;47.748;8.960;2024-01-30T00:24:25;8.73;;;6.77;;
3149;SDS011;32503;47.748;8.960;2024-01-30T00:26:52;10.73;;;7.87;;
3149;SDS011;32503;47.748;8.960;2024-01-30T00:29:19;10.47;;;7.30;;
3149;SDS011;32503;47.748;8.960;2024-01-30T00:31:48;12.30;;;8.13;;
3149;SDS011;32503;47.748;8.960;2024-01-30T00:34:16;8.20;;;7.40;;
3149;SDS011;32503;47.748;8.960;2024-01-30T00:36:43;9.33;;;6.67;;
3149;SDS011;32503;47.748;8.960;2024-01-30T00:39:10;10.37;;;8.00;;
3149;SDS011;32503;47.748;8.960;2024-01-30T00:41:37;10.40;;;7.00;;
3149;SDS011;32503;47.748;8.960;2024-01-30T00:44:04;7.50;;;6.70;;
3149;SDS011;32503;47.748;8.960;2024-01-30T00:46:31;12.70;;;7.03;;
3149;SDS011;32503;47.748;8.960;2024-01-30T00:48:58;7.03;;;6.40;;
3149;SDS011;32503;47.748;8.960;2024-01-30T00:51:27;11.73;;;7.80;;
3149;SDS011;32503;47.748;8.960;2024-01-30T00:53:54;9.40;;;7.17;;
3149;SDS011;32503;47.748;8.960;2024-01-30T00:56:21;8.33;;;7.33;;
3149;SDS011;32503;47.748;8.960;2024-01-30T00:58:49;7.87;;;7.17;;
3149;SDS011;32503;47.748;8.960;2024-01-30T01:01:16;11.93;;;8.30;;
3149;SDS011;32503;47.748;8.960;2024-01-30T01:03:43;9.30;;;6.97;;
3149;SDS011;32503;47.748;8.960;2024-01-30T01:06:11;11.60;;;7.87;;
3149;SDS011;32503;47.748;8.960;2024-01-30T01:08:39;10.90;;;7.77;;
3149;SDS011;32503;47.748;8.960;2024-01-30T01:11:06;8.80;;;7.30;;
3149;SDS011;32503;47.748;8.960;2024-01-30T01:13:33;10.87;;;7.40;;
3149;SDS011;32503;47.748;8.960;2024-01-30T01:16:00;8.50;;;7.30;;
3149;SDS011;32503;47.748;8.960;2024-01-30T01:18:27;9.37;;;8.10;;
3149;SDS011;32503;47.748;8.960;2024-01-30T01:20:54;7.80;;;7.07;;
3149;SDS011;32503;47.748;8.960;2024-01-30T01:23:21;11.70;;;8.23;;
3149;SDS011;32503;47.748;8.960;2024-01-30T01:25:50;8.60;;;7.50;;
3149;SDS011;32503;47.748;8.960;2024-01-30T01:28:17;9.13;;;6.97;;
3149;SDS011;32503;47.748;8.960;2024-01-30T01:30:44;9.40;;;7.67;;
3149;SDS011;32503;47.748;8.960;2024-01-30T01:33:11;10.30;;;6.70;;
3149;SDS011;32503;47.748;8.960;2024-01-30T01:35:39;11.20;;;6.93;;
3149;SDS011;32503;47.748;8.960;2024-01-30T01:38:06;13.77;;;8.70;;
3149;SDS011;32503;47.748;8.960;2024-01-30T01:40:36;11.30;;;7.67;;
3149;SDS011;32503;47.748;8.960;2024-01-30T01:43:06;9.33;;;7.40;;
3149;SDS011;32503;47.748;8.960;2024-01-30T01:45:33;12.13;;;7.67;;
3149;SDS011;32503;47.748;8.960;2024-01-30T01:48:00;9.43;;;7.10;;
3149;SDS011;32503;47.748;8.960;2024-01-30T01:50:27;10.07;;;7.07;;
3149;SDS011;32503;47.748;8.960;2024-01-30T01:52:54;8.70;;;7.80;;
3149;SDS011;32503;47.748;8.960;2024-01-30T01:55:22;8.43;;;6.57;;
3149;SDS011;32503;47.748;8.960;2024-01-30T01:57:51;8.53;;;7.50;;
3149;SDS011;32503;47.748;8.960;2024-01-30T02:00:21;9.23;;;7.20;;
3149;SDS011;32503;47.748;8.960;2024-01-30T02:02:48;9.30;;;7.10;;
3149;SDS011;32503;47.748;8.960;2024-01-30T02:05:16;7.57;;;6.80;;
3149;SDS011;32503;47.748;8.960;2024-01-30T02:07:44;14.17;;;8.00;;
3149;SDS011;32503;47.748;8.960;2024-01-30T02:10:11;6.50;;;5.90;;
3149;SDS011;32503;47.748;8.960;2024-01-30T02:12:38;14.30;;;8.77;;
3149;SDS011;32503;47.748;8.960;2024-01-30T02:15:06;8.97;;;7.80;;
3149;SDS011;32503;47.748;8.960;2024-01-30T02:17:34;11.53;;;8.00;;
3149;SDS011;32503;47.748;8.960;2024-01-30T02:20:02;11.10;;;8.20;;
3149;SDS011;32503;47.748;8.960;2024-01-30T02:22:31;8.80;;;7.30;;
3149;SDS011;32503;47.748;8.960;2024-01-30T02:25:00;11.67;;;8.80;;
3149;SDS011;32503;47.748;8.960;2024-01-30T02:27:27;11.20;;;7.67;;
3149;SDS011;32503;47.748;8.960;2024-01-30T02:29:54;12.00;;;6.83;;
3149;SDS011;32503;47.748;8.960;2024-01-30T02:32:21;11.73;;;7.93;;
3149;SDS011;32503;47.748;8.960;2024-01-30T02:34:48;13.97;;;9.27;;
3149;SDS011;32503;47.748;8.960;2024-01-30T02:37:16;6.33;;;5.83;;
3149;SDS011;32503;47.748;8.960;2024-01-30T02:39:45;9.93;;;7.63;;
3149;SDS011;32503;47.748;8.960;2024-01-30T02:42:13;8.10;;;7.07;;
3149;SDS011;32503;47.748;8.960;2024-01-30T02:44:40;7.90;;;7.10;;
3149;SDS011;32503;47.748;8.960;2024-01-30T02:47:07;9.63;;;7.30;;
3149;SDS011;32503;47.748;8.960;2024-01-30T02:49:34;9.73;;;7.20;;
3149;SDS011;32503;47.748;8.960;2024-01-30T02:52:01;7.10;;;6.23;;
3149;SDS011;32503;47.748;8.960;2024-01-30T02:54:28;8.50;;;7.10;;
3149;SDS011;32503;47.748;8.960;2024-01-30T02:56:58;9.10;;;7.50;;
3149;SDS011;32503;47.748;8.960;2024-01-30T02:59:25;8.50;;;6.87;;
3149;SDS011;32503;47.748;8.960;2024-01-30T03:01:52;9.47;;;6.10;;
3149;SDS011;32503;47.748;8.960;2024-01-30T03:04:19;9.63;;;6.70;;
3149;SDS011;32503;47.748;8.960;2024-01-30T03:06:46;7.37;;;6.60;;
3149;SDS011;32503;47.748;8.960;2024-01-30T03:09:13;8.30;;;6.60;;
3149;SDS011;32503;47.748;8.960;2024-01-30T03:11:42;7.43;;;5.60;;
3149;SDS011;32503;47.748;8.960;2024-01-30T03:14:11;11.23;;;7.50;;
3149;SDS011;32503;47.748;8.960;2024-01-30T03:16:38;9.20;;;6.77;;
3149;SDS011;32503;47.748;8.960;2024-01-30T03:19:05;12.13;;;6.77;;
3149;SDS011;32503;47.748;8.960;2024-01-30T03:21:34;11.80;;;8.20;;
3149;SDS011;32503;47.748;8.960;2024-01-30T03:24:01;12.70;;;9.50;;
3149;SDS011;32503;47.748;8.960;2024-01-30T03:26:29;10.33;;;7.10;;
3149;SDS011;32503;47.748;8.960;2024-01-30T03:28:56;9.33;;;7.17;;
3149;SDS011;32503;47.748;8.960;2024-01-30T03:31:24;10.83;;;7.40;;
3149;SDS011;32503;47.748;8.960;2024-01-30T03:33:51;9.60;;;7.70;;
3149;SDS011;32503;47.748;8.960;2024-01-30T03:36:19;12.20;;;7.83;;
3149;SDS011;32503;47.748;8.960;2024-01-30T03:38:46;13.30;;;8.77;;
3149;SDS011;32503;47.748;8.960;2024-01-30T03:41:13;7.97;;;6.67;;
3149;SDS011;32503;47.748;8.960;2024-01-30T03:43:40;8.63;;;6.83;;
3149;SDS011;32503;47.748;8.960;2024-01-30T03:46:07;9.00;;;6.90;;
3149;SDS011;32503;47.748;8.960;2024-01-30T03:48:36;15.40;;;8.30;;
3149;SDS011;32503;47.748;8.960;2024-01-30T03:51:03;8.90;;;7.87;;
3149;SDS011;32503;47.748;8.960;2024-01-30T03:53:31;11.07;;;7.30;;
3149;SDS011;32503;47.748;8.960;2024-01-30T03:55:58;8.10;;;7.03;;
3149;SDS011;32503;47.748;8.960;2024-01-30T03:58:25;11.20;;;6.83;;
3149;SDS011;32503;47.748;8.960;2024-01-30T04:00:52;12.53;;;7.57;;
3149;SDS011;32503;47.748;8.960;2024-01-30T04:03:19;8.93;;;6.83;;
3149;SDS011;32503;47.748;8.960;2024-01-30T04:05:47;11.40;;;7.60;;
3149;SDS011;32503;47.748;8.960;2024-01-30T04:08:14;8.17;;;7.20;;
3149;SDS011;32503;47.748;8.960;2024-01-30T04:10:41;12.70;;;6.73;;
3149;SDS011;32503;47.748;8.960;2024-01-30T04:13:09;10.70;;;7.87;;
3149;SDS011;32503;47.748;8.960;2024-01-30T04:15:36;10.60;;;7.43;;
3149;SDS011;32503;47.748;8.960;2024-01-30T04:18:03;9.80;;;7.13;;
3149;SDS011;32503;47.748;8.960;2024-01-30T04:20:31;9.10;;;7.27;;
3149;SDS011;32503;47.748;8.960;2024-01-30T04:22:59;10.70;;;8.00;;
3149;SDS011;32503;47.748;8.960;2024-01-30T04:25:26;9.60;;;6.97;;
3149;SDS011;32503;47.748;8.960;2024-01-30T04:27:53;8.77;;;6.70;;
3149;SDS011;32503;47.748;8.960;2024-01-30T04:30:20;10.20;;;7.40;;
3149;SDS011;32503;47.748;8.960;2024-01-30T04:32:47;9.30;;;6.43;;
3149;SDS011;32503;47.748;8.960;2024-01-30T04:35:14;12.93;;;7.63;;
3149;SDS011;32503;47.748;8.960;2024-01-30T04:37:42;7.40;;;6.67;;
3149;SDS011;32503;47.748;8.960;2024-01-30T04:40:13;8.70;;;7.47;;
3149;SDS011;32503;47.748;8.960;2024-01-30T04:42:40;9.77;;;6.30;;
3149;SDS011;32503;47.748;8.960;2024-01-30T04:45:07;12.67;;;7.37;;
3149;SDS011;32503;47.748;8.960;2024-01-30T04:47:35;8.13;;;6.90;;
3149;SDS011;32503;47.748;8.960;2024-01-30T04:50:02;6.43;;;5.83;;
3149;SDS011;32503;47.748;8.960;2024-01-30T04:52:30;11.00;;;7.60;;
3149;SDS011;32503;47.748;8.960;2024-01-30T04:54:57;14.30;;;6.83;;
3149;SDS011;32503;47.748;8.960;2024-01-30T04:57:26;13.10;;;7.70;;
3149;SDS011;32503;47.748;8.960;2024-01-30T04:59:53;9.50;;;7.40;;
3149;SDS011;32503;47.748;8.960;2024-01-30T05:02:20;13.30;;;8.60;;
3149;SDS011;32503;47.748;8.960;2024-01-30T05:04:47;12.40;;;7.60;;
3149;SDS011;32503;47.748;8.960;2024-01-30T05:07:14;9.23;;;7.60;;
3149;SDS011;32503;47.748;8.960;2024-01-30T05:09:41;7.47;;;6.60;;
3149;SDS011;32503;47.748;8.960;2024-01-30T05:12:08;13.27;;;7.90;;
3149;SDS011;32503;47.748;8.960;2024-01-30T05:14:36;11.00;;;7.00;;
3149;SDS011;32503;47.748;8.960;2024-01-30T05:17:03;6.77;;;6.17;;
3149;SDS011;32503;47.748;8.960;2024-01-30T05:19:30;9.70;;;7.07;;
3149;SDS011;32503;47.748;8.960;2024-01-30T05:21:57;7.63;;;6.50;;
3149;SDS011;32503;47.748;8.960;2024-01-30T05:24:24;10.43;;;6.60;;
3149;SDS011;32503;47.748;8.960;2024-01-30T05:26:52;10.13;;;6.07;;
3149;SDS011;32503;47.748;8.960;2024-01-30T05:29:19;7.00;;;5.75;;
3149;SDS011;32503;47.748;8.960;2024-01-30T05:31:47;8.30;;;6.27;;
3149;SDS011;32503;47.748;8.960;2024-01-30T05:34:14;7.33;;;6.60;;
3149;SDS011;32503;47.748;8.960;2024-01-30T05:36:41;7.90;;;6.90;;
3149;SDS011;32503;47.748;8.960;2024-01-30T05:39:08;7.23;;;6.10;;
3149;SDS011;32503;47.748;8.960;2024-01-30T05:41:36;8.73;;;6.30;;
3149;SDS011;32503;47.748;8.960;2024-01-30T05:44:03;7.67;;;6.57;;
3149;SDS011;32503;47.748;8.960;2024-01-30T05:46:30;9.20;;;6.20;;
3149;SDS011;32503;47.748;8.960;2024-01-30T05:48:59;6.57;;;6.00;;
3149;SDS011;32503;47.748;8.960;2024-01-30T05:51:26;9.80;;;7.20;;
3149;SDS011;32503;47.748;8.960;2024-01-30T05:53:54;8.87;;;6.77;;
3149;SDS011;32503;47.748;8.960;2024-01-30T05:56:21;8.70;;;6.50;;
3149;SDS011;32503;47.748;8.960;2024-01-30T05:58:48;7.13;;;6.43;;
3149;SDS011;32503;47.748;8.960;2024-01-30T06:01:16;9.13;;;6.33;;
3149;SDS011;32503;47.748;8.960;2024-01-30T06:03:43;8.70;;;7.67;;
3149;SDS011;32503;47.748;8.960;2024-01-30T06:06:11;8.07;;;6.07;;
3149;SDS011;32503;47.748;8.960;2024-01-30T06:08:38;6.77;;;6.03;;
3149;SDS011;32503;47.748;8.960;2024-01-30T06:11:05;10.30;;;6.90;;
3149;SDS011;32503;47.748;8.960;2024-01-30T06:13:36;9.50;;;7.67;;
3149;SDS011;32503;47.748;8.960;2024-01-30T06:16:03;7.57;;;6.43;;
3149;SDS011;32503;47.748;8.960;2024-01-30T06:18:31;8.47;;;6.53;;
3149;SDS011;32503;47.748;8.960;2024-01-30T06:20:58;6.73;;;6.10;;
3149;SDS011;32503;47.748;8.960;2024-01-30T06:23:26;11.87;;;7.20;;
3149;SDS011;32503;47.748;8.960;2024-01-30T06:25:53;13.17;;;8.03;;
3149;SDS011;32503;47.748;8.960;2024-01-30T06:28:20;10.33;;;6.93;;
3149;SDS011;32503;47.748;8.960;2024-01-30T06:30:47;11.67;;;6.80;;
3149;SDS011;32503;47.748;8.960;2024-01-30T06:33:14;10.73;;;7.03;;
3149;SDS011;32503;47.748;8.960;2024-01-30T06:35:44;12.10;;;6.67;;
3149;SDS011;32503;47.748;8.960;2024-01-30T06:38:11;8.43;;;6.27;;
3149;SDS011;32503;47.748;8.960;2024-01-30T06:40:39;9.30;;;6.57;;
3149;SDS011;32503;47.748;8.960;2024-01-30T06:43:06;8.90;;;6.70;;
3149;SDS011;32503;47.748;8.960;2024-01-30T06:45:34;11.90;;;8.10;;
3149;SDS011;32503;47.748;8.960;2024-01-30T06:48:01;14.10;;;8.30;;
3149;SDS011;32503;47.748;8.960;2024-01-30T06:50:29;7.37;;;6.43;;
3149;SDS011;32503;47.748;8.960;2024-01-30T06:52:56;9.73;;;7.00;;
3149;SDS011;32503;47.748;8.960;2024-01-30T06:55:23;10.27;;;6.80;;
3149;SDS011;32503;47.748;8.960;2024-01-30T06:57:51;12.00;;;6.10;;
3149;SDS011;32503;47.748;8.960;2024-01-30T07:00:19;9.83;;;7.60;;
3149;SDS011;32503;47.748;8.960;2024-01-30T07:02:46;13.10;;;8.37;;
3149;SDS011;32503;47.748;8.960;2024-01-30T07:05:13;11.80;;;8.10;;
3149;SDS011;32503;47.748;8.960;2024-01-30T07:07:42;11.20;;;7.90;;
3149;SDS011;32503;47.748;8.960;2024-01-30T07:10:09;11.60;;;7.73;;
3149;SDS011;32503;47.748;8.960;2024-01-30T07:12:36;12.00;;;8.80;;
3149;SDS011;32503;47.748;8.960;2024-01-30T07:15:05;12.37;;;8.60;;
3149;SDS011;32503;47.748;8.960;2024-01-30T07:17:34;8.37;;;7.63;;
3149;SDS011;32503;47.748;8.960;2024-01-30T07:20:01;9.07;;;7.77;;
3149;SDS011;32503;47.748;8.960;2024-01-30T07:22:29;11.90;;;7.37;;
3149;SDS011;32503;47.748;8.960;2024-01-30T07:24:56;12.30;;;7.40;;
3149;SDS011;32503;47.748;8.960;2024-01-30T07:27:23;12.00;;;8.10;;
3149;SDS011;32503;47.748;8.960;2024-01-30T07:29:50;11.17;;;7.93;;
3149;SDS011;32503;47.748;8.960;2024-01-30T07:32:19;9.50;;;7.50;;
3149;SDS011;32503;47.748;8.960;2024-01-30T07:34:46;10.40;;;6.80;;
3149;SDS011;32503;47.748;8.960;2024-01-30T07:37:13;13.30;;;7.43;;
3149;SDS011;32503;47.748;8.960;2024-01-30T07:39:41;15.57;;;9.23;;
3149;SDS011;32503;47.748;8.960;2024-01-30T07:42:08;10.13;;;7.70;;
3149;SDS011;32503;47.748;8.960;2024-01-30T07:44:35;9.93;;;7.90;;
3149;SDS011;32503;47.748;8.960;2024-01-30T07:47:02;13.73;;;8.50;;
3149;SDS011;32503;47.748;8.960;2024-01-30T07:49:32;14.23;;;8.90;;
3149;SDS011;32503;47.748;8.960;2024-01-30T07:51:59;18.47;;;9.93;;
3149;SDS011;32503;47.748;8.960;2024-01-30T07:54:26;16.17;;;9.37;;
3149;SDS011;32503;47.748;8.960;2024-01-30T07:56:58;20.30;;;10.13;;
3149;SDS011;32503;47.748;8.960;2024-01-30T07:59:25;16.03;;;8.73;;
3149;SDS011;32503;47.748;8.960;2024-01-30T08:01:52;11.90;;;8.70;;
3149;SDS011;32503;47.748;8.960;2024-01-30T08:04:19;16.17;;;8.40;;
3149;SDS011;32503;47.748;8.960;2024-01-30T08:06:47;17.07;;;9.70;;
3149;SDS011;32503;47.748;8.960;2024-01-30T08:09:15;17.00;;;9.70;;
3149;SDS011;32503;47.748;8.960;2024-01-30T08:11:42;18.00;;;9.60;;
3149;SDS011;32503;47.748;8.960;2024-01-30T08:14:09;13.37;;;10.00;;
3149;SDS011;32503;47.748;8.960;2024-01-30T08:16:36;17.50;;;9.90;;
3149;SDS011;32503;47.748;8.960;2024-01-30T08:19:03;15.00;;;8.93;;
3149;SDS011;32503;47.748;8.960;2024-01-30T08:21:30;18.60;;;10.17;;
3149;SDS011;32503;47.748;8.960;2024-01-30T08:24:02;13.47;;;10.40;;
3149;SDS011;32503;47.748;8.960;2024-01-30T08:26:29;17.43;;;10.40;;
3149;SDS011;32503;47.748;8.960;2024-01-30T08:28:57;17.30;;;8.70;;
3149;SDS011;32503;47.748;8.960;2024-01-30T08:31:24;17.70;;;9.00;;
3149;SDS011;32503;47.748;8.960;2024-01-30T08:33:51;14.70;;;9.70;;
3149;SDS011;32503;47.748;8.960;2024-01-30T08:36:20;13.37;;;8.17;;
3149;SDS011;32503;47.748;8.960;2024-01-30T08:38:47;15.90;;;8.60;;
3149;SDS011;32503;47.748;8.960;2024-01-30T08:41:15;13.80;;;8.17;;
3149;SDS011;32503;47.748;8.960;2024-01-30T08:43:44;15.90;;;9.30;;
3149;SDS011;32503;47.748;8.960;2024-01-30T08:46:11;15.23;;;7.93;;
3149;SDS011;32503;47.748;8.960;2024-01-30T08:48:38;16.80;;;7.93;;
3149;SDS011;32503;47.748;8.960;2024-01-30T08:51:05;13.63;;;8.23;;
3149;SDS011;32503;47.748;8.960;2024-01-30T08:53:34;17.37;;;9.60;;
3149;SDS011;32503;47.748;8.960;2024-01-30T08:56:02;20.23;;;10.40;;
3149;SDS011;32503;47.748;8.960;2024-01-30T08:58:31;16.30;;;8.37;;
3149;SDS011;32503;47.748;8.960;2024-01-30T09:00:58;12.43;;;8.83;;
3149;SDS011;32503;47.748;8.960;2024-01-30T09:03:25;15.97;;;8.30;;
3149;SDS011;32503;47.748;8.960;2024-01-30T09:05:52;17.53;;;10.43;;
3149;SDS011;32503;47.748;8.960;2024-01-30T09:08:19;20.97;;;10.80;;
3149;SDS011;32503;47.748;8.960;2024-01-30T09:10:46;16.77;;;10.10;;
3149;SDS011;32503;47.748;8.960;2024-01-30T09:13:15;18.50;;;9.07;;
3149;SDS011;32503;47.748;8.960;2024-01-30T09:15:43;18.40;;;10.53;;
3149;SDS011;32503;47.748;8.960;2024-01-30T09:18:10;19.90;;;10.80;;
3149;SDS011;32503;47.748;8.960;2024-01-30T09:20:37;18.27;;;10.90;;
3149;SDS011;32503;47.748;8.960;2024-01-30T09:23:04;27.20;;;13.63;;
3149;SDS011;32503;47.748;8.960;2024-01-30T09:25:31;16.63;;;10.93;;
3149;SDS011;32503;47.748;8.960;2024-01-30T09:27:59;32.37;;;18.67;;
3149;SDS011;32503;47.748;8.960;2024-01-30T09:30:26;29.60;;;18.50;;
3149;SDS011;32503;47.748;8.960;2024-01-30T09:32:54;23.00;;;12.87;;
3149;SDS011;32503;47.748;8.960;2024-01-30T09:35:21;19.10;;;12.13;;
3149;SDS011;32503;47.748;8.960;2024-01-30T09:37:48;19.77;;;10.03;;
3149;SDS011;32503;47.748;8.960;2024-01-30T09:40:16;24.17;;;15.83;;
3149;SDS011;32503;47.748;8.960;2024-01-30T09:42:44;25.03;;;12.70;;
3149;SDS011;32503;47.748;8.960;2024-01-30T09:45:14;19.03;;;11.03;;
3149;SDS011;32503;47.748;8.960;2024-01-30T09:47:41;15.43;;;11.00;;
3149;SDS011;32503;47.748;8.960;2024-01-30T09:50:13;24.23;;;11.43;;
3149;SDS011;32503;47.748;8.960;2024-01-30T09:52:41;21.30;;;11.20;;
3149;SDS011;32503;47.748;8.960;2024-01-30T09:55:10;20.37;;;11.90;;
3149;SDS011;32503;47.748;8.960;2024-01-30T09:57:37;18.77;;;10.70;;
3149;SDS011;32503;47.748;8.960;2024-01-30T10:00:05;22.90;;;10.67;;
3149;SDS011;32503;47.748;8.960;2024-01-30T10:02:34;18.77;;;11.37;;
3149;SDS011;32503;47.748;8.960;2024-01-30T10:05:01;17.67;;;12.57;;
3149;SDS011;32503;47.748;8.960;2024-01-30T10:07:30;25.07;;;11.53;;
3149;SDS011;32503;47.748;8.960;2024-01-30T10:09:57;26.03;;;11.70;;
3149;SDS011;32503;47.748;8.960;2024-01-30T10:12:25;17.30;;;12.40;;
3149;SDS011;32503;47.748;8.960;2024-01-30T10:14:55;21.43;;;11.67;;
3149;SDS011;32503;47.748;8.960;2024-01-30T10:17:24;24.93;;;12.87;;
3149;SDS011;32503;47.748;8.960;2024-01-30T10:19:52;26.70;;;14.30;;
3149;SDS011;32503;47.748;8.960;2024-01-30T10:22:19;31.73;;;14.43;;
3149;SDS011;32503;47.748;8.960;2024-01-30T10:24:47;25.20;;;12.53;;
3149;SDS011;32503;47.748;8.960;2024-01-30T10:27:15;25.23;;;12.47;;
3149;SDS011;32503;47.748;8.960;2024-01-30T10:29:42;23.80;;;13.90;;
3149;SDS011;32503;47.748;8.960;2024-01-30T10:32:09;32.57;;;15.93;;
3149;SDS011;32503;47.748;8.960;2024-01-30T10:34:36;33.83;;;14.93;;
3149;SDS011;32503;47.748;8.960;2024-01-30T10:37:06;31.33;;;15.87;;
3149;SDS011;32503;47.748;8.960;2024-01-30T10:39:38;30.67;;;15.10;;
3149;SDS011;32503;47.748;8.960;2024-01-30T10:42:10;29.20;;;14.00;;
3149;SDS011;32503;47.748;8.960;2024-01-30T10:44:43;24.53;;;12.73;;
3149;SDS011;32503;47.748;8.960;2024-01-30T10:47:21;22.70;;;12.50;;
3149;SDS011;32503;47.748;8.960;2024-01-30T10:49:55;20.93;;;12.00;;
3149;SDS011;32503;47.748;8.960;2024-01-30T10:52:23;28.27;;;13.87;;
3149;SDS011;32503;47.748;8.960;2024-01-30T10:54:53;24.53;;;13.97;;
3149;SDS011;32503;47.748;8.960;2024-01-30T10:57:22;18.07;;;11.97;;
3149;SDS011;32503;47.748;8.960;2024-01-30T10:59:51;24.63;;;12.77;;
3149;SDS011;32503;47.748;8.960;2024-01-30T11:02:21;15.87;;;10.30;;
3149;SDS011;32503;47.748;8.960;2024-01-30T11:04:49;16.33;;;11.37;;
3149;SDS011;32503;47.748;8.960;2024-01-30T11:07:24;17.67;;;11.20;;
3149;SDS011;32503;47.748;8.960;2024-01-30T11:09:52;20.20;;;13.27;;
3149;SDS011;32503;47.748;8.960;2024-01-30T11:12:27;22.20;;;11.20;;
3149;SDS011;32503;47.748;8.960;2024-01-30T11:15:02;20.33;;;12.47;;
3149;SDS011;32503;47.748;8.960;2024-01-30T11:17:43;34.70;;;17.90;;
3149;SDS011;32503;47.748;8.960;2024-01-30T11:20:12;21.80;;;13.50;;
3149;SDS011;32503;47.748;8.960;2024-01-30T11:22:42;25.20;;;13.07;;
3149;SDS011;32503;47.748;8.960;2024-01-30T11:25:11;24.33;;;14.20;;
3149;SDS011;32503;47.748;8.960;2024-01-30T11:27:41;19.87;;;13.00;;
3149;SDS011;32503;47.748;8.960;2024-01-30T11:30:09;19.73;;;13.90;;
3149;SDS011;32503;47.748;8.960;2024-01-30T11:32:37;20.40;;;13.17;;
3149;SDS011;32503;47.748;8.960;2024-01-30T11:35:04;22.87;;;13.50;;
3149;SDS011;32503;47.748;8.960;2024-01-30T11:37:35;18.90;;;12.73;;
3149;SDS011;32503;47.748;8.960;2024-01-30T11:40:04;22.83;;;13.27;;
3149;SDS011;32503;47.748;8.960;2024-01-30T11:42:33;23.20;;;14.90;;
3149;SDS011;32503;47.748;8.960;2024-01-30T11:45:06;26.37;;;14.67;;
3149;SDS011;32503;47.748;8.960;2024-01-30T11:47:34;20.70;;;13.00;;
3149;SDS011;32503;47.748;8.960;2024-01-30T11:50:02;18.87;;;13.60;;
3149;SDS011;32503;47.748;8.960;2024-01-30T11:52:31;19.93;;;13.60;;
3149;SDS011;32503;47.748;8.960;2024-01-30T11:54:59;21.07;;;14.63;;
3149;SDS011;32503;47.748;8.960;2024-01-30T11:57:27;20.53;;;14.27;;
3149;SDS011;32503;47.748;8.960;2024-01-30T11:59:55;18.70;;;12.10;;
3149;SDS011;32503;47.748;8.960;2024-01-30T12:02:24;15.73;;;11.50;;
3149;SDS011;32503;47.748;8.960;2024-01-30T12:04:51;22.30;;;10.80;;
3149;SDS011;32503;47.748;8.960;2024-01-30T12:07:18;19.33;;;11.90;;
3149;SDS011;32503;47.748;8.960;2024-01-30T12:09:51;17.40;;;10.70;;
3149;SDS011;32503;47.748;8.960;2024-01-30T12:12:21;15.87;;;11.00;;
3149;SDS011;32503;47.748;8.960;2024-01-30T12:14:49;18.27;;;10.60;;
3149;SDS011;32503;47.748;8.960;2024-01-30T12:17:24;15.07;;;11.10;;
3149;SDS011;32503;47.748;8.960;2024-01-30T12:20:02;19.03;;;11.40;;
3149;SDS011;32503;47.748;8.960;2024-01-30T12:22:31;14.97;;;10.40;;
3149;SDS011;32503;47.748;8.960;2024-01-30T12:25:02;14.70;;;10.90;;
3149;SDS011;32503;47.748;8.960;2024-01-30T12:27:30;15.70;;;10.60;;
3149;SDS011;32503;47.748;8.960;2024-01-30T12:29:57;18.40;;;12.00;;
3149;SDS011;32503;47.748;8.960;2024-01-30T12:32:26;20.80;;;12.37;;
3149;SDS011;32503;47.748;8.960;2024-01-30T12:34:54;17.50;;;11.33;;
3149;SDS011;32503;47.748;8.960;2024-01-30T12:37:22;17.30;;;11.70;;
3149;SDS011;32503;47.748;8.960;2024-01-30T12:39:50;13.20;;;10.10;;
3149;SDS011;32503;47.748;8.960;2024-01-30T12:42:19;18.80;;;12.37;;
3149;SDS011;32503;47.748;8.960;2024-01-30T12:44:47;22.33;;;13.30;;
3149;SDS011;32503;47.748;8.960;2024-01-30T12:47:15;18.90;;;12.37;;
3149;SDS011;32503;47.748;8.960;2024-01-30T12:49:44;22.17;;;12.43;;
3149;SDS011;32503;47.748;8.960;2024-01-30T12:52:11;23.03;;;12.73;;
3149;SDS011;32503;47.748;8.960;2024-01-30T12:54:39;17.30;;;12.60;;
3149;SDS011;32503;47.748;8.960;2024-01-30T12:57:06;18.00;;;12.03;;
3149;SDS011;32503;47.748;8.960;2024-01-30T12:59:33;22.30;;;12.70;;
3149;SDS011;32503;47.748;8.960;2024-01-30T13:02:00;19.13;;;12.70;;
3149;SDS011;32503;47.748;8.960;2024-01-30T13:04:28;21.43;;;12.13;;
3149;SDS011;32503;47.748;8.960;2024-01-30T13:06:57;15.90;;;11.57;;
3149;SDS011;32503;47.748;8.960;2024-01-30T13:09:25;18.90;;;11.57;;
3149;SDS011;32503;47.748;8.960;2024-01-30T13:11:52;15.63;;;12.33;;
3149;SDS011;32503;47.748;8.960;2024-01-30T13:14:19;14.40;;;11.50;;
3149;SDS011;32503;47.748;8.960;2024-01-30T13:16:46;15.67;;;11.00;;
3149;SDS011;32503;47.748;8.960;2024-01-30T13:19:13;20.83;;;11.87;;
3149;SDS011;32503;47.748;8.960;2024-01-30T13:21:41;16.37;;;11.77;;
3149;SDS011;32503;47.748;8.960;2024-01-30T13:24:09;17.87;;;11.03;;
3149;SDS011;32503;47.748;8.960;2024-01-30T13:26:36;14.50;;;11.57;;
3149;SDS011;32503;47.748;8.960;2024-01-30T13:29:03;15.53;;;11.57;;
3149;SDS011;32503;47.748;8.960;2024-01-30T13:31:30;18.57;;;11.20;;
3149;SDS011;32503;47.748;8.960;2024-01-30T13:33:57;23.25;;;14.15;;
3149;SDS011;32503;47.748;8.960;2024-01-30T13:36:24;16.80;;;11.30;;
3149;SDS011;32503;47.748;8.960;2024-01-30T13:38:51;19.00;;;12.30;;
3149;SDS011;32503;47.748;8.960;2024-01-30T13:41:20;14.30;;;10.97;;
3149;SDS011;32503;47.748;8.960;2024-01-30T13:43:47;14.13;;;11.73;;
3149;SDS011;32503;47.748;8.960;2024-01-30T13:46:15;15.63;;;12.10;;
3149;SDS011;32503;47.748;8.960;2024-01-30T13:48:42;16.73;;;11.83;;
3149;SDS011;32503;47.748;8.960;2024-01-30T13:51:09;18.77;;;12.53;;
3149;SDS011;32503;47.748;8.960;2024-01-30T13:53:38;15.80;;;11.00;;
3149;SDS011;32503;47.748;8.960;2024-01-30T13:56:05;17.27;;;11.53;;
3149;SDS011;32503;47.748;8.960;2024-01-30T13:58:34;28.53;;;12.60;;
3149;SDS011;32503;47.748;8.960;2024-01-30T14:01:01;19.27;;;12.13;;
3149;SDS011;32503;47.748;8.960;2024-01-30T14:03:28;22.17;;;12.17;;
3149;SDS011;32503;47.748;8.960;2024-01-30T14:05:55;19.97;;;10.80;;
3149;SDS011;32503;47.748;8.960;2024-01-30T14:08:23;15.73;;;11.77;;
3149;SDS011;32503;47.748;8.960;2024-01-30T14:10:53;18.83;;;11.80;;
3149;SDS011;32503;47.748;8.960;2024-01-30T14:13:20;14.80;;;11.80;;
3149;SDS011;32503;47.748;8.960;2024-01-30T14:15:49;21.03;;;11.87;;
3149;SDS011;32503;47.748;8.960;2024-01-30T14:18:16;17.33;;;12.80;;
3149;SDS011;32503;47.748;8.960;2024-01-30T14:20:43;18.33;;;12.50;;
3149;SDS011;32503;47.748;8.960;2024-01-30T14:23:10;17.10;;;11.70;;
3149;SDS011;32503;47.748;8.960;2024-01-30T14:25:37;16.67;;;11.47;;
3149;SDS011;32503;47.748;8.960;2024-01-30T14:28:04;16.97;;;13.03;;
3149;SDS011;32503;47.748;8.960;2024-01-30T14:30:32;18.20;;;12.93;;
3149;SDS011;32503;47.748;8.960;2024-01-30T14:33:00;20.27;;;12.37;;
3149;SDS011;32503;47.748;8.960;2024-01-30T14:35:28;16.83;;;11.10;;
3149;SDS011;32503;47.748;8.960;2024-01-30T14:37:55;17.53;;;12.27;;
3149;SDS011;32503;47.748;8.960;2024-01-30T14:40:22;21.60;;;12.67;;
3149;SDS011;32503;47.748;8.960;2024-01-30T14:42:49;16.20;;;11.23;;
3149;SDS011;32503;47.748;8.960;2024-01-30T14:45:16;18.13;;;13.17;;
3149;SDS011;32503;47.748;8.960;2024-01-30T14:47:43;16.17;;;11.57;;
3149;SDS011;32503;47.748;8.960;2024-01-30T14:50:12;16.07;;;10.60;;